logo
Search for airport 
image banner adimage banner adimage banner ad
image banner ad

MMMVE - Monteverde

Located in Progreso, Mexico

ICAO - , IATA -

Data provided by Airmate  

General information

Coordinates: N27°21'22" W100°41'11"
Elevation is 1000 feet MSL.
Magnetic variation is 4° East
View others Airports in Coahuila

Operational data

Special qualification required
Current time UTC:
Current local time:
Weather at : - ( 0 km )
METAR: PPIZ 180742Z AUTO 04022KT 3/4SM -SN BR OVC018 M11/M12 A3023 RMK AO2 PK WND 03026/0730 P0000 FZRANO
View NOTAMs / SUP AIP / TFR affecting this airport [VIEW]
Communications frequencies: [VIEW]

Runways:

RWY identifierQFULength (ft)Width (ft)SurfaceLDA (ft)
29300°218835ASPH
11120°218835ASPH

Airport contact information

Address: Progreso Mexico

Satellite view of MMMVE